Time;durP1;ratioP1;P1;durP2;ratioP2;P2;SDS_P1;SDS_P2;PMS_P1;PMS_P2;Temp;Humidity;BMP_temperature;BMP_pressure;BME280_temperature;BME280_humidity;BME280_pressure;Samples;Min_cycle;Max_cycle;Signal;HPM_P1;HPM_P2
2023/07/08 00:01:08;;;;;;;11.68;5.88;;;;;;;;;;5010342;28;20105;-84
2023/07/08 00:03:33;;;;;;;10.15;5.30;;;;;;;;;;5012022;28;20033;-84
2023/07/08 00:05:59;;;;;;;8.85;5.53;;;;;;;;;;5020348;28;20026;-83
2023/07/08 00:08:25;;;;;;;9.15;5.30;;;;;;;;;;5009280;28;20674;-82
2023/07/08 00:10:51;;;;;;;9.90;5.18;;;;;;;;;;5009125;28;20034;-82
2023/07/08 00:13:18;;;;;;;9.95;5.18;;;;;;;;;;5012166;28;20108;-82
2023/07/08 00:15:44;;;;;;;8.80;5.18;;;;;;;;;;4995686;28;20042;-85
2023/07/08 00:18:15;;;;;;;10.30;5.68;;;;;;;;;;5011638;28;20127;-84
2023/07/08 00:20:47;;;;;;;9.85;5.10;;;;;;;;;;5013927;28;20034;-85
2023/07/08 00:23:12;;;;;;;9.98;5.72;;;;;;;;;;5008166;28;20403;-82
2023/07/08 00:25:38;;;;;;;11.20;5.32;;;;;;;;;;5009115;28;20055;-81
2023/07/08 00:28:21;;;;;;;10.70;5.72;;;;;;;;;;4977568;28;20043;-81
2023/07/08 00:30:47;;;;;;;9.98;5.80;;;;;;;;;;4994842;28;20030;-81
2023/07/08 00:33:13;;;;;;;8.35;5.07;;;;;;;;;;5005680;28;20448;-84
2023/07/08 00:35:43;;;;;;;12.30;5.60;;;;;;;;;;4993049;28;20569;-83
2023/07/08 00:38:26;;;;;;;9.10;5.70;;;;;;;;;;4996862;28;20030;-82
2023/07/08 00:40:53;;;;;;;8.77;5.28;;;;;;;;;;5009559;28;20120;-83
2023/07/08 00:43:24;;;;;;;7.63;5.35;;;;;;;;;;5007171;28;20502;-82
2023/07/08 00:45:55;;;;;;;7.80;5.38;;;;;;;;;;5014949;28;20459;-83
2023/07/08 00:48:28;;;;;;;10.18;5.75;;;;;;;;;;5008710;28;20034;-82
2023/07/08 00:50:54;;;;;;;12.02;5.50;;;;;;;;;;4991299;28;20074;-84
2023/07/08 00:53:34;;;;;;;10.10;5.43;;;;;;;;;;4998006;28;20040;-84
2023/07/08 00:56:04;;;;;;;8.38;5.50;;;;;;;;;;5009722;28;20035;-83
2023/07/08 00:58:40;;;;;;;10.55;5.28;;;;;;;;;;4991104;28;20129;-84
2023/07/08 01:01:07;;;;;;;11.00;5.38;;;;;;;;;;4996488;28;20034;-83
2023/07/08 01:03:42;;;;;;;10.27;5.20;;;;;;;;;;5010314;28;20087;-83
2023/07/08 01:06:08;;;;;;;8.35;4.97;;;;;;;;;;4988883;28;20116;-82
2023/07/08 01:08:34;;;;;;;11.90;5.60;;;;;;;;;;5010978;28;20495;-82
2023/07/08 01:11:03;;;;;;;11.00;5.57;;;;;;;;;;5007064;28;20023;-81
2023/07/08 01:13:35;;;;;;;9.70;5.95;;;;;;;;;;5008643;28;20132;-82
2023/07/08 01:16:00;;;;;;;10.30;5.20;;;;;;;;;;4993538;28;20450;-82
2023/07/08 01:18:27;;;;;;;9.25;5.75;;;;;;;;;;5013138;28;20551;-82
2023/07/08 01:20:55;;;;;;;10.77;5.55;;;;;;;;;;4994458;28;20034;-82
2023/07/08 01:23:22;;;;;;;9.48;5.90;;;;;;;;;;5006412;28;20034;-84
2023/07/08 01:25:47;;;;;;;10.77;5.55;;;;;;;;;;4988768;28;20112;-84
2023/07/08 01:28:14;;;;;;;9.55;5.50;;;;;;;;;;4993061;28;20042;-84
2023/07/08 01:30:42;;;;;;;9.48;5.40;;;;;;;;;;4996042;28;20038;-83
2023/07/08 01:33:16;;;;;;;9.10;5.32;;;;;;;;;;4997718;28;20049;-82
2023/07/08 01:35:42;;;;;;;9.35;5.40;;;;;;;;;;5009780;28;20456;-82
2023/07/08 01:38:10;;;;;;;8.63;5.35;;;;;;;;;;5013234;28;20030;-82
2023/07/08 01:40:42;;;;;;;9.43;5.50;;;;;;;;;;5004591;28;20038;-82
2023/07/08 01:43:08;;;;;;;7.82;4.88;;;;;;;;;;5011004;28;20049;-82
2023/07/08 01:45:40;;;;;;;9.82;5.18;;;;;;;;;;4982097;28;20033;-82
2023/07/08 01:48:08;;;;;;;8.80;5.38;;;;;;;;;;4984173;28;20488;-84
2023/07/08 01:50:38;;;;;;;8.95;5.53;;;;;;;;;;4992939;28;20039;-84
2023/07/08 01:53:10;;;;;;;9.55;5.30;;;;;;;;;;5000730;28;20038;-84
2023/07/08 01:55:35;;;;;;;11.85;5.70;;;;;;;;;;4997829;28;20042;-82
2023/07/08 01:58:01;;;;;;;8.60;5.38;;;;;;;;;;5000752;28;20085;-83
2023/07/08 02:00:26;;;;;;;8.93;5.70;;;;;;;;;;4994634;28;20483;-82
2023/07/08 02:02:52;;;;;;;9.48;5.70;;;;;;;;;;5017093;28;20065;-83
2023/07/08 02:05:18;;;;;;;8.75;5.40;;;;;;;;;;5014834;28;20101;-83
2023/07/08 02:07:43;;;;;;;9.50;5.43;;;;;;;;;;5009750;28;20040;-83
2023/07/08 02:10:09;;;;;;;9.48;5.47;;;;;;;;;;4992715;28;20066;-82
2023/07/08 02:12:35;;;;;;;8.57;5.45;;;;;;;;;;5000689;28;20049;-82
2023/07/08 02:15:01;;;;;;;9.68;5.28;;;;;;;;;;4988611;28;20037;-81
2023/07/08 02:17:28;;;;;;;8.65;5.47;;;;;;;;;;5008841;28;20054;-81
2023/07/08 02:19:55;;;;;;;10.90;5.57;;;;;;;;;;4977071;28;20038;-83
2023/07/08 02:22:20;;;;;;;10.20;6.05;;;;;;;;;;5007389;28;20044;-82
2023/07/08 02:24:46;;;;;;;9.45;6.00;;;;;;;;;;4991618;28;20042;-83
2023/07/08 02:27:11;;;;;;;9.25;5.80;;;;;;;;;;5003127;28;20044;-82
2023/07/08 02:29:38;;;;;;;9.90;5.60;;;;;;;;;;4988177;28;20034;-83
2023/07/08 02:32:04;;;;;;;9.00;5.85;;;;;;;;;;4992527;28;20037;-82
2023/07/08 02:34:30;;;;;;;11.20;5.55;;;;;;;;;;4995459;28;20038;-83
2023/07/08 02:36:56;;;;;;;10.38;6.10;;;;;;;;;;5009899;28;20045;-82
2023/07/08 02:39:22;;;;;;;9.20;6.07;;;;;;;;;;5012870;28;20388;-82
2023/07/08 02:41:48;;;;;;;10.30;5.72;;;;;;;;;;5007454;28;20030;-82
2023/07/08 02:44:14;;;;;;;8.98;5.95;;;;;;;;;;4988337;28;20495;-83
2023/07/08 02:46:40;;;;;;;9.70;5.57;;;;;;;;;;5009938;28;20084;-81
2023/07/08 02:49:05;;;;;;;10.60;5.78;;;;;;;;;;5012801;28;20052;-82
2023/07/08 02:51:31;;;;;;;10.20;6.40;;;;;;;;;;5011546;28;20029;-83
2023/07/08 02:53:56;;;;;;;12.93;6.10;;;;;;;;;;4977024;28;20038;-83
2023/07/08 02:56:22;;;;;;;14.15;5.95;;;;;;;;;;5015820;28;20117;-83
2023/07/08 02:58:48;;;;;;;11.32;6.00;;;;;;;;;;4995894;28;20046;-81
2023/07/08 03:01:18;;;;;;;11.88;5.70;;;;;;;;;;5005216;28;20061;-81
2023/07/08 03:03:47;;;;;;;9.93;5.85;;;;;;;;;;5001162;28;20038;-81
2023/07/08 03:06:13;;;;;;;11.13;5.90;;;;;;;;;;5005119;28;20489;-81
2023/07/08 03:08:39;;;;;;;10.35;6.22;;;;;;;;;;4994299;28;20030;-81
2023/07/08 03:11:06;;;;;;;9.70;5.90;;;;;;;;;;5008723;28;20033;-82
2023/07/08 03:13:33;;;;;;;10.23;6.10;;;;;;;;;;5000831;28;20063;-82
2023/07/08 03:16:00;;;;;;;13.18;6.50;;;;;;;;;;4994295;28;20040;-80
2023/07/08 03:18:26;;;;;;;12.60;5.95;;;;;;;;;;5006201;28;20104;-80
2023/07/08 03:20:55;;;;;;;11.30;6.25;;;;;;;;;;4992498;28;20038;-80
2023/07/08 03:23:25;;;;;;;11.50;6.07;;;;;;;;;;4980684;28;20094;-80
2023/07/08 03:25:52;;;;;;;12.75;6.18;;;;;;;;;;5016154;28;20046;-81
2023/07/08 03:28:19;;;;;;;10.68;6.10;;;;;;;;;;4997607;28;20132;-81
2023/07/08 03:30:52;;;;;;;13.30;6.25;;;;;;;;;;4994265;28;20034;-81
2023/07/08 03:33:17;;;;;;;12.13;6.00;;;;;;;;;;4994502;28;20034;-82
2023/07/08 03:35:43;;;;;;;11.75;6.20;;;;;;;;;;4994444;28;20444;-81
2023/07/08 03:38:08;;;;;;;10.98;6.18;;;;;;;;;;5006678;28;20469;-81
2023/07/08 03:40:34;;;;;;;11.43;5.75;;;;;;;;;;4996777;28;20042;-82
2023/07/08 03:42:59;;;;;;;8.77;5.90;;;;;;;;;;4999306;28;20041;-82
2023/07/08 03:45:28;;;;;;;9.25;6.00;;;;;;;;;;4996107;28;20034;-82
2023/07/08 03:47:55;;;;;;;10.57;5.68;;;;;;;;;;4992297;28;20510;-83
2023/07/08 03:50:25;;;;;;;11.20;6.47;;;;;;;;;;4995794;28;20030;-83
2023/07/08 03:52:52;;;;;;;11.18;6.10;;;;;;;;;;4998253;28;20034;-83
2023/07/08 03:55:18;;;;;;;12.43;6.47;;;;;;;;;;5012493;28;20124;-81
2023/07/08 03:57:44;;;;;;;10.13;5.72;;;;;;;;;;4990601;28;20519;-82
2023/07/08 04:00:14;;;;;;;12.55;6.20;;;;;;;;;;4978035;28;20044;-82
2023/07/08 04:02:41;;;;;;;10.57;5.75;;;;;;;;;;5014762;28;20064;-82
2023/07/08 04:05:21;;;;;;;10.13;6.45;;;;;;;;;;5009340;28;20030;-82
2023/07/08 04:07:47;;;;;;;11.18;6.20;;;;;;;;;;4991133;28;20170;-82
2023/07/08 04:10:14;;;;;;;10.82;5.63;;;;;;;;;;4990830;28;20040;-83
2023/07/08 04:12:40;;;;;;;9.38;5.72;;;;;;;;;;5006833;28;20133;-84
2023/07/08 04:15:08;;;;;;;11.88;5.70;;;;;;;;;;5009788;28;20054;-81
2023/07/08 04:17:41;;;;;;;9.70;5.78;;;;;;;;;;5005279;28;20049;-81
2023/07/08 04:20:10;;;;;;;9.68;5.85;;;;;;;;;;5009989;28;20038;-82
2023/07/08 04:22:37;;;;;;;10.85;5.63;;;;;;;;;;5008384;28;20077;-83
2023/07/08 04:25:05;;;;;;;10.50;6.07;;;;;;;;;;5009860;28;20039;-81
2023/07/08 04:27:31;;;;;;;9.23;5.70;;;;;;;;;;5002598;28;20030;-81
2023/07/08 04:29:57;;;;;;;10.10;6.07;;;;;;;;;;5005753;28;20033;-82
2023/07/08 04:32:26;;;;;;;9.60;5.75;;;;;;;;;;5011705;28;20033;-81
2023/07/08 04:34:52;;;;;;;11.98;6.20;;;;;;;;;;5014238;28;20476;-83
2023/07/08 04:37:19;;;;;;;10.68;5.75;;;;;;;;;;5011927;28;20053;-82
2023/07/08 04:39:45;;;;;;;9.13;5.72;;;;;;;;;;5015646;28;20044;-82
2023/07/08 04:42:15;;;;;;;10.77;5.82;;;;;;;;;;5005699;28;20077;-83
2023/07/08 04:44:41;;;;;;;9.45;5.95;;;;;;;;;;5007491;28;20038;-84
2023/07/08 04:47:08;;;;;;;10.65;6.10;;;;;;;;;;4992797;28;20041;-83
2023/07/08 04:49:35;;;;;;;12.57;6.10;;;;;;;;;;5011895;28;20037;-83
2023/07/08 04:52:01;;;;;;;10.43;6.20;;;;;;;;;;5016896;28;20448;-82
2023/07/08 04:54:28;;;;;;;8.35;5.43;;;;;;;;;;5012310;28;20554;-82
2023/07/08 04:56:54;;;;;;;10.75;5.45;;;;;;;;;;5003133;28;20037;-82
2023/07/08 04:59:22;;;;;;;9.88;5.95;;;;;;;;;;5003498;28;20122;-80
2023/07/08 05:01:49;;;;;;;11.45;5.63;;;;;;;;;;5005526;28;20099;-82
2023/07/08 05:04:16;;;;;;;13.02;5.85;;;;;;;;;;5007303;28;20104;-82
2023/07/08 05:06:42;;;;;;;9.95;6.10;;;;;;;;;;4994469;28;20121;-83
2023/07/08 05:09:08;;;;;;;15.20;5.90;;;;;;;;;;5012473;28;20127;-83
2023/07/08 05:11:34;;;;;;;10.20;5.95;;;;;;;;;;5013040;28;20033;-81
2023/07/08 05:14:01;;;;;;;9.90;6.00;;;;;;;;;;5000223;28;20057;-82
2023/07/08 05:16:26;;;;;;;10.90;6.03;;;;;;;;;;4985601;28;20395;-82
2023/07/08 05:18:52;;;;;;;13.40;5.82;;;;;;;;;;5005898;28;20092;-80
2023/07/08 05:21:19;;;;;;;13.05;6.60;;;;;;;;;;5010409;28;20104;-82
2023/07/08 05:23:46;;;;;;;8.57;5.68;;;;;;;;;;4994622;28;20125;-82
2023/07/08 05:26:11;;;;;;;10.77;5.82;;;;;;;;;;5013192;28;20034;-82
2023/07/08 05:28:37;;;;;;;8.85;5.93;;;;;;;;;;5004850;28;20042;-82
2023/07/08 05:31:02;;;;;;;12.48;5.50;;;;;;;;;;5001591;28;20040;-82
2023/07/08 05:33:30;;;;;;;11.38;6.22;;;;;;;;;;5004430;28;20099;-82
2023/07/08 05:35:56;;;;;;;12.13;5.60;;;;;;;;;;4973854;28;20389;-81
2023/07/08 05:38:21;;;;;;;9.80;5.72;;;;;;;;;;5010570;28;20045;-83
2023/07/08 05:40:53;;;;;;;8.85;5.32;;;;;;;;;;5013413;28;20038;-83
2023/07/08 05:43:19;;;;;;;10.32;5.85;;;;;;;;;;5008698;28;20042;-84
2023/07/08 05:45:45;;;;;;;9.95;6.13;;;;;;;;;;5001059;28;20049;-84
2023/07/08 05:48:11;;;;;;;9.50;6.07;;;;;;;;;;5004208;28;20070;-82
2023/07/08 05:50:37;;;;;;;10.52;5.88;;;;;;;;;;5006990;28;20506;-81
2023/07/08 05:53:02;;;;;;;10.43;6.18;;;;;;;;;;5006186;28;20129;-82
2023/07/08 05:55:28;;;;;;;8.65;5.70;;;;;;;;;;4991467;28;20048;-81
2023/07/08 05:57:53;;;;;;;9.98;6.22;;;;;;;;;;4994929;28;20093;-81
2023/07/08 06:00:19;;;;;;;10.65;5.70;;;;;;;;;;4991990;28;20145;-81
2023/07/08 06:02:44;;;;;;;12.10;6.38;;;;;;;;;;4981166;28;20061;-81
2023/07/08 06:05:10;;;;;;;9.75;6.18;;;;;;;;;;5001373;28;20471;-81
2023/07/08 06:07:35;;;;;;;9.23;5.93;;;;;;;;;;5004172;28;20453;-81
2023/07/08 06:10:01;;;;;;;9.48;6.20;;;;;;;;;;5007079;28;20038;-81
2023/07/08 06:12:27;;;;;;;10.05;5.95;;;;;;;;;;4992204;28;20053;-79
2023/07/08 06:14:52;;;;;;;9.18;6.47;;;;;;;;;;5005538;28;20030;-80
2023/07/08 06:17:18;;;;;;;10.35;6.13;;;;;;;;;;4996549;28;20404;-81
2023/07/08 06:19:43;;;;;;;12.18;6.10;;;;;;;;;;4981492;28;20377;-81
2023/07/08 06:22:09;;;;;;;9.68;6.25;;;;;;;;;;5001871;28;20143;-84
2023/07/08 06:24:35;;;;;;;10.98;6.43;;;;;;;;;;5005494;28;20042;-83
2023/07/08 06:27:00;;;;;;;13.77;6.50;;;;;;;;;;4990639;28;20076;-84
2023/07/08 06:29:26;;;;;;;11.38;6.65;;;;;;;;;;5011603;28;20117;-83
2023/07/08 06:31:51;;;;;;;11.30;6.30;;;;;;;;;;4985278;28;20035;-84
2023/07/08 06:34:18;;;;;;;9.68;6.43;;;;;;;;;;4997298;28;20042;-84
2023/07/08 06:36:44;;;;;;;9.02;6.00;;;;;;;;;;5002320;28;20411;-84
2023/07/08 06:39:11;;;;;;;9.35;6.30;;;;;;;;;;4988070;28;20076;-83
2023/07/08 06:41:37;;;;;;;9.13;6.18;;;;;;;;;;5011665;28;20041;-84
2023/07/08 06:44:03;;;;;;;9.43;6.15;;;;;;;;;;5013075;28;20041;-84
2023/07/08 06:46:31;;;;;;;9.80;6.45;;;;;;;;;;5018896;28;20459;-82
2023/07/08 06:48:56;;;;;;;8.73;5.88;;;;;;;;;;4999431;28;20046;-82
2023/07/08 06:51:22;;;;;;;9.68;6.03;;;;;;;;;;4999947;28;20033;-82
2023/07/08 06:53:47;;;;;;;9.20;6.18;;;;;;;;;;5003464;28;20049;-81
2023/07/08 06:56:13;;;;;;;9.82;6.32;;;;;;;;;;5006863;28;20045;-82
2023/07/08 06:58:38;;;;;;;9.95;6.22;;;;;;;;;;4995710;28;20121;-82
2023/07/08 07:01:04;;;;;;;9.80;6.40;;;;;;;;;;5011320;28;20089;-83
2023/07/08 07:03:30;;;;;;;9.90;6.38;;;;;;;;;;5010248;28;20030;-83
2023/07/08 07:05:55;;;;;;;9.90;6.10;;;;;;;;;;4995388;28;20135;-82
2023/07/08 07:08:21;;;;;;;9.48;6.55;;;;;;;;;;5001999;28;20042;-83
2023/07/08 07:10:46;;;;;;;9.57;6.30;;;;;;;;;;5013117;28;20043;-83
2023/07/08 07:13:12;;;;;;;11.85;6.47;;;;;;;;;;5011708;28;20034;-84
2023/07/08 07:15:37;;;;;;;10.05;6.30;;;;;;;;;;5017442;28;20045;-83
2023/07/08 07:18:03;;;;;;;10.60;6.38;;;;;;;;;;5019550;28;20042;-83
2023/07/08 07:20:29;;;;;;;10.73;6.57;;;;;;;;;;5013934;28;20030;-84
2023/07/08 07:22:54;;;;;;;11.68;6.80;;;;;;;;;;5007761;28;20097;-85
2023/07/08 07:25:20;;;;;;;13.50;6.95;;;;;;;;;;5010383;28;20037;-85
2023/07/08 07:27:45;;;;;;;9.63;6.20;;;;;;;;;;5012543;28;20029;-85
2023/07/08 07:30:14;;;;;;;12.15;6.35;;;;;;;;;;5002187;28;20491;-84
2023/07/08 07:32:41;;;;;;;13.40;6.30;;;;;;;;;;5017711;28;20052;-85
2023/07/08 07:35:08;;;;;;;12.68;6.97;;;;;;;;;;5016873;28;20053;-84
2023/07/08 07:37:34;;;;;;;9.57;6.30;;;;;;;;;;5010244;28;20037;-84
2023/07/08 07:39:59;;;;;;;10.30;6.55;;;;;;;;;;5006849;28;20034;-84
2023/07/08 07:42:27;;;;;;;11.75;6.47;;;;;;;;;;5009873;28;20407;-84
2023/07/08 07:44:53;;;;;;;13.98;6.85;;;;;;;;;;5019345;28;20080;-84
2023/07/08 07:47:18;;;;;;;10.93;6.60;;;;;;;;;;5019997;28;20077;-83
2023/07/08 07:49:44;;;;;;;12.18;6.55;;;;;;;;;;5017871;28;20049;-82
2023/07/08 07:52:10;;;;;;;9.30;6.20;;;;;;;;;;5015837;28;20044;-82
2023/07/08 07:54:37;;;;;;;10.63;6.57;;;;;;;;;;5009969;28;20076;-84
2023/07/08 07:57:03;;;;;;;9.68;6.40;;;;;;;;;;5007324;28;20061;-83
2023/07/08 07:59:29;;;;;;;9.80;6.30;;;;;;;;;;5010749;28;20392;-83
2023/07/08 08:01:54;;;;;;;7.97;6.10;;;;;;;;;;4994828;28;20049;-82
2023/07/08 08:04:20;;;;;;;9.43;6.40;;;;;;;;;;5016367;28;20041;-82
2023/07/08 08:06:45;;;;;;;8.77;6.47;;;;;;;;;;5013391;28;20049;-82
2023/07/08 08:09:11;;;;;;;9.90;6.63;;;;;;;;;;5013934;28;20050;-81
2023/07/08 08:11:36;;;;;;;11.85;6.40;;;;;;;;;;5004481;28;20041;-84
2023/07/08 08:14:03;;;;;;;9.65;6.57;;;;;;;;;;5008727;28;20026;-83
2023/07/08 08:16:29;;;;;;;14.35;6.53;;;;;;;;;;5011373;28;20049;-83
2023/07/08 08:18:54;;;;;;;13.57;6.47;;;;;;;;;;5015137;28;20038;-83
2023/07/08 08:21:21;;;;;;;10.43;6.30;;;;;;;;;;5012954;28;20049;-83
2023/07/08 08:23:47;;;;;;;9.30;6.22;;;;;;;;;;4999210;28;20048;-83
2023/07/08 08:26:12;;;;;;;10.10;6.32;;;;;;;;;;4994469;28;20117;-81
2023/07/08 08:28:38;;;;;;;11.98;6.30;;;;;;;;;;4989045;28;20044;-82
2023/07/08 08:31:03;;;;;;;9.55;6.35;;;;;;;;;;4997535;28;20022;-84
2023/07/08 08:33:29;;;;;;;12.50;6.40;;;;;;;;;;5013054;28;20069;-83
2023/07/08 08:35:54;;;;;;;10.20;6.28;;;;;;;;;;5011616;28;20108;-82
2023/07/08 08:38:20;;;;;;;10.93;6.53;;;;;;;;;;5011623;28;20061;-84
2023/07/08 08:40:45;;;;;;;9.57;6.60;;;;;;;;;;5004236;28;20032;-82
2023/07/08 08:43:36;;;;;;;9.73;6.07;;;;;;;;;;5011409;28;20148;-83
2023/07/08 08:46:23;;;;;;;10.20;6.28;;;;;;;;;;5003912;28;20493;-83
2023/07/08 08:48:54;;;;;;;19.40;6.50;;;;;;;;;;5014425;28;20077;-81
2023/07/08 08:51:20;;;;;;;10.63;6.07;;;;;;;;;;5014908;28;20038;-83
2023/07/08 08:53:46;;;;;;;11.55;6.63;;;;;;;;;;5010816;28;20050;-84
2023/07/08 08:56:22;;;;;;;13.43;6.95;;;;;;;;;;4999850;28;20141;-83
2023/07/08 08:59:08;;;;;;;11.43;6.70;;;;;;;;;;5005965;28;20042;-83
2023/07/08 09:01:33;;;;;;;13.02;6.35;;;;;;;;;;4989285;28;20061;-82
2023/07/08 09:04:05;;;;;;;10.82;6.60;;;;;;;;;;5004663;28;20038;-83
2023/07/08 09:06:35;;;;;;;13.85;6.80;;;;;;;;;;4994481;28;20033;-85
2023/07/08 09:09:06;;;;;;;9.68;6.40;;;;;;;;;;5002303;28;20061;-83
2023/07/08 09:11:51;;;;;;;12.23;6.40;;;;;;;;;;5013216;28;20045;-84
2023/07/08 09:14:25;;;;;;;11.82;6.50;;;;;;;;;;5017410;28;20038;-84
2023/07/08 09:17:09;;;;;;;13.77;6.32;;;;;;;;;;5012099;28;20048;-83
2023/07/08 09:19:43;;;;;;;8.48;5.95;;;;;;;;;;5018425;28;20048;-83
2023/07/08 09:22:30;;;;;;;10.65;6.90;;;;;;;;;;5016604;28;20101;-84
2023/07/08 09:24:58;;;;;;;11.40;6.68;;;;;;;;;;5017941;28;20129;-84
2023/07/08 09:27:24;;;;;;;10.98;6.70;;;;;;;;;;5015077;28;20354;-84
2023/07/08 09:29:49;;;;;;;11.63;7.15;;;;;;;;;;5000845;28;20034;-83
2023/07/08 09:32:20;;;;;;;10.45;6.20;;;;;;;;;;5007792;28;20107;-84
2023/07/08 09:34:53;;;;;;;10.52;6.60;;;;;;;;;;5003293;28;20041;-84
2023/07/08 09:37:29;;;;;;;13.82;7.00;;;;;;;;;;4988690;28;20056;-83
2023/07/08 09:39:56;;;;;;;8.60;6.38;;;;;;;;;;5012265;28;20045;-79
2023/07/08 09:42:29;;;;;;;9.98;6.25;;;;;;;;;;5001830;28;20088;-81
2023/07/08 09:44:57;;;;;;;10.60;5.88;;;;;;;;;;5015089;28;20046;-82
2023/07/08 09:47:28;;;;;;;8.48;6.00;;;;;;;;;;5016347;28;20037;-80
2023/07/08 09:49:53;;;;;;;7.47;5.20;;;;;;;;;;5017025;28;20048;-82
2023/07/08 09:52:19;;;;;;;9.00;5.82;;;;;;;;;;5018731;28;20038;-82
2023/07/08 09:54:46;;;;;;;8.07;5.82;;;;;;;;;;5014161;28;20033;-80
2023/07/08 09:57:33;;;;;;;11.68;5.45;;;;;;;;;;5017443;28;20041;-82
2023/07/08 10:00:03;;;;;;;8.32;5.50;;;;;;;;;;4996572;28;20034;-81
2023/07/08 10:03:03;;;;;;;9.27;5.63;;;;;;;;;;5014467;28;20038;-81
2023/07/08 10:06:00;;;;;;;11.40;5.97;;;;;;;;;;5013665;28;20057;-80
2023/07/08 10:08:41;;;;;;;10.43;5.30;;;;;;;;;;4997687;28;20076;-83
2023/07/08 10:11:23;;;;;;;8.07;5.43;;;;;;;;;;5007419;28;20053;-83
2023/07/08 10:13:53;;;;;;;11.02;5.50;;;;;;;;;;4984631;28;20045;-84
2023/07/08 10:16:33;;;;;;;10.25;5.30;;;;;;;;;;5011271;28;20550;-83
2023/07/08 10:18:59;;;;;;;13.57;6.05;;;;;;;;;;5010402;28;20038;-81
2023/07/08 10:22:01;;;;;;;9.93;5.57;;;;;;;;;;5015400;28;20117;-79
2023/07/08 10:24:50;;;;;;;10.80;5.63;;;;;;;;;;5016161;28;20034;-84
2023/07/08 10:27:21;;;;;;;8.63;5.63;;;;;;;;;;5009160;28;20049;-83
2023/07/08 10:29:56;;;;;;;10.77;6.10;;;;;;;;;;5009191;28;20406;-83
2023/07/08 10:32:39;;;;;;;9.43;5.45;;;;;;;;;;5014691;28;20092;-84
2023/07/08 10:35:28;;;;;;;12.02;5.68;;;;;;;;;;5012989;28;20029;-83
2023/07/08 10:38:09;;;;;;;9.57;5.40;;;;;;;;;;5012208;28;20032;-81
2023/07/08 10:41:04;;;;;;;9.35;5.78;;;;;;;;;;5013331;28;20026;-83
2023/07/08 10:43:53;;;;;;;9.55;6.20;;;;;;;;;;4962919;28;20058;-84
2023/07/08 10:46:31;;;;;;;8.40;6.03;;;;;;;;;;5008926;28;20042;-84
2023/07/08 10:49:27;;;;;;;10.43;6.60;;;;;;;;;;5002032;28;20034;-84
2023/07/08 10:52:29;;;;;;;10.18;6.10;;;;;;;;;;5006635;28;20506;-84
2023/07/08 10:55:01;;;;;;;9.77;5.70;;;;;;;;;;5011883;28;20379;-83
2023/07/08 10:57:33;;;;;;;9.55;5.85;;;;;;;;;;5010429;28;20038;-83
2023/07/08 11:00:22;;;;;;;12.02;5.72;;;;;;;;;;5002105;28;20454;-83
2023/07/08 11:03:10;;;;;;;9.32;5.78;;;;;;;;;;5003657;28;20030;-83
2023/07/08 11:05:45;;;;;;;9.20;5.70;;;;;;;;;;5005907;28;20030;-82
2023/07/08 11:08:23;;;;;;;9.48;5.93;;;;;;;;;;5009096;28;20041;-82
2023/07/08 11:10:54;;;;;;;9.45;5.60;;;;;;;;;;5023162;28;20033;-83
2023/07/08 11:13:23;;;;;;;9.13;5.95;;;;;;;;;;5003364;28;20030;-82
2023/07/08 11:16:00;;;;;;;14.98;5.93;;;;;;;;;;5001752;28;20041;-83
2023/07/08 11:18:32;;;;;;;10.13;5.25;;;;;;;;;;5006206;28;20050;-83
2023/07/08 11:21:13;;;;;;;12.52;5.50;;;;;;;;;;5011247;28;20064;-85
2023/07/08 11:24:12;;;;;;;13.00;5.40;;;;;;;;;;5015612;28;20120;-84
2023/07/08 11:27:00;;;;;;;9.07;5.18;;;;;;;;;;4975343;28;20061;-84
2023/07/08 11:29:34;;;;;;;9.90;5.30;;;;;;;;;;5003203;28;20033;-85
2023/07/08 11:32:01;;;;;;;9.23;5.53;;;;;;;;;;5010865;28;20096;-85
2023/07/08 11:34:28;;;;;;;11.95;5.38;;;;;;;;;;5023501;28;20090;-84
2023/07/08 11:36:55;;;;;;;14.05;5.63;;;;;;;;;;5020110;28;20030;-84
2023/07/08 11:39:43;;;;;;;8.70;5.40;;;;;;;;;;5016036;28;20038;-84
2023/07/08 11:42:18;;;;;;;10.65;5.05;;;;;;;;;;5007750;28;20053;-85
2023/07/08 11:44:51;;;;;;;12.10;5.32;;;;;;;;;;5008103;28;20037;-84
2023/07/08 11:47:24;;;;;;;8.85;5.40;;;;;;;;;;4998360;28;20041;-84
2023/07/08 11:49:51;;;;;;;;;;;;;;;;;;5010969;28;20041;-81
2023/07/08 11:52:19;;;;;;;12.85;5.68;;;;;;;;;;5011102;28;19920;-85
2023/07/08 11:54:55;;;;;;;10.57;5.32;;;;;;;;;;4996182;28;20128;-83
2023/07/08 11:57:37;;;;;;;15.95;6.03;;;;;;;;;;5009033;28;20088;-83
2023/07/08 12:00:29;;;;;;;9.93;5.57;;;;;;;;;;5014596;28;20034;-84
2023/07/08 12:03:03;;;;;;;9.63;5.40;;;;;;;;;;4992861;28;20077;-82
2023/07/08 12:05:38;;;;;;;10.85;5.97;;;;;;;;;;5010742;28;20396;-83
2023/07/08 12:08:13;;;;;;;11.20;5.75;;;;;;;;;;5012945;28;20073;-84
2023/07/08 12:10:43;;;;;;;10.13;5.90;;;;;;;;;;5017520;28;20034;-84
2023/07/08 12:13:22;;;;;;;10.05;5.85;;;;;;;;;;5012759;28;20065;-84
2023/07/08 12:15:48;;;;;;;10.18;5.97;;;;;;;;;;5012285;28;20221;-84
2023/07/08 12:18:14;;;;;;;11.93;5.95;;;;;;;;;;5017584;28;20141;-83
2023/07/08 12:20:43;;;;;;;11.15;5.90;;;;;;;;;;5010647;28;20124;-83
2023/07/08 12:23:17;;;;;;;9.88;6.25;;;;;;;;;;5014743;28;20046;-83
2023/07/08 12:25:43;;;;;;;9.70;5.90;;;;;;;;;;5018387;28;20034;-84
2023/07/08 12:28:12;;;;;;;11.07;6.05;;;;;;;;;;4999165;28;20106;-83
2023/07/08 12:30:38;;;;;;;10.88;5.80;;;;;;;;;;4999639;28;20421;-83
2023/07/08 12:33:13;;;;;;;11.13;6.18;;;;;;;;;;4996129;28;20088;-82
2023/07/08 12:35:40;;;;;;;12.25;5.90;;;;;;;;;;5014596;28;20041;-82
2023/07/08 12:38:27;;;;;;;11.00;6.00;;;;;;;;;;4989845;28;20042;-82
2023/07/08 12:40:53;;;;;;;9.65;5.70;;;;;;;;;;5011994;28;20030;-82
2023/07/08 12:43:18;;;;;;;9.73;5.85;;;;;;;;;;4999557;28;20042;-82
2023/07/08 12:45:44;;;;;;;9.20;5.85;;;;;;;;;;5010670;28;20411;-83
2023/07/08 12:48:10;;;;;;;10.75;6.22;;;;;;;;;;5012949;28;20117;-82
2023/07/08 12:50:36;;;;;;;10.85;5.78;;;;;;;;;;5016136;28;20057;-83
2023/07/08 12:53:09;;;;;;;13.40;6.18;;;;;;;;;;4999036;28;20463;-82
2023/07/08 12:55:36;;;;;;;10.65;5.72;;;;;;;;;;5015156;28;20044;-83
2023/07/08 12:58:02;;;;;;;12.02;6.00;;;;;;;;;;5016221;28;20053;-82
2023/07/08 13:00:31;;;;;;;9.10;6.10;;;;;;;;;;5008235;28;20096;-82
2023/07/08 13:03:21;;;;;;;11.88;6.18;;;;;;;;;;4992818;28;20699;-82
2023/07/08 13:05:48;;;;;;;10.50;5.68;;;;;;;;;;5013949;28;20487;-83
2023/07/08 13:08:17;;;;;;;9.65;6.20;;;;;;;;;;5016239;28;20073;-83
2023/07/08 13:10:43;;;;;;;10.52;5.93;;;;;;;;;;5012198;28;20403;-83
2023/07/08 13:13:13;;;;;;;12.38;6.00;;;;;;;;;;5015358;28;20408;-82
2023/07/08 13:15:41;;;;;;;9.25;5.72;;;;;;;;;;4997506;28;20045;-85
2023/07/08 13:18:16;;;;;;;9.70;6.20;;;;;;;;;;5008189;28;20088;-83
2023/07/08 13:20:44;;;;;;;9.27;5.78;;;;;;;;;;5014474;28;20029;-82
2023/07/08 13:23:10;;;;;;;7.85;5.97;;;;;;;;;;5015411;28;20057;-83
2023/07/08 13:25:38;;;;;;;12.27;6.20;;;;;;;;;;5016082;28;20125;-84
2023/07/08 13:28:39;;;;;;;11.75;5.90;;;;;;;;;;5018733;28;20128;-83
2023/07/08 13:31:18;;;;;;;9.68;5.93;;;;;;;;;;4987368;28;20043;-84
2023/07/08 13:33:53;;;;;;;13.75;6.25;;;;;;;;;;5004799;28;20042;-83
2023/07/08 13:36:32;;;;;;;10.32;5.68;;;;;;;;;;4991345;28;20124;-84
2023/07/08 13:38:59;;;;;;;11.15;6.72;;;;;;;;;;4988075;28;20480;-84
2023/07/08 13:41:25;;;;;;;10.68;6.13;;;;;;;;;;5013299;28;20411;-83
2023/07/08 13:43:50;;;;;;;13.20;6.40;;;;;;;;;;5012264;28;20042;-83
2023/07/08 13:46:34;;;;;;;10.75;6.10;;;;;;;;;;4995424;28;20040;-83
2023/07/08 13:49:15;;;;;;;9.95;5.90;;;;;;;;;;5003944;28;20492;-82
2023/07/08 13:51:42;;;;;;;11.23;6.07;;;;;;;;;;5007221;28;20026;-83
2023/07/08 13:54:33;;;;;;;10.00;6.05;;;;;;;;;;5010282;28;20033;-83
2023/07/08 13:57:01;;;;;;;9.40;6.72;;;;;;;;;;5011596;28;20041;-85
2023/07/08 13:59:26;;;;;;;9.82;6.70;;;;;;;;;;4995225;28;20042;-84
2023/07/08 14:01:55;;;;;;;10.77;6.40;;;;;;;;;;5005205;28;20038;-83
2023/07/08 14:04:27;;;;;;;12.95;6.30;;;;;;;;;;4999046;28;20412;-83
2023/07/08 14:06:52;;;;;;;9.57;6.63;;;;;;;;;;5006489;28;20073;-83
2023/07/08 14:09:21;;;;;;;14.18;6.78;;;;;;;;;;5010176;28;20128;-82
2023/07/08 14:11:48;;;;;;;11.52;6.15;;;;;;;;;;5030478;22;20026;-82
2023/07/08 14:14:14;;;;;;;8.35;5.97;;;;;;;;;;5043241;28;20091;-83
2023/07/08 14:16:45;;;;;;;9.95;6.10;;;;;;;;;;5031757;28;20025;-82
2023/07/08 14:19:24;;;;;;;11.23;5.90;;;;;;;;;;5001394;28;20458;-82
2023/07/08 14:21:56;;;;;;;11.07;6.28;;;;;;;;;;5022946;28;20091;-82
2023/07/08 14:24:22;;;;;;;10.18;6.20;;;;;;;;;;5020759;28;20046;-82
2023/07/08 14:26:48;;;;;;;9.70;6.00;;;;;;;;;;5023079;28;20048;-82
2023/07/08 14:29:13;;;;;;;8.90;6.13;;;;;;;;;;5008625;28;20037;-82
2023/07/08 14:31:40;;;;;;;8.50;6.10;;;;;;;;;;5018776;28;20140;-82
2023/07/08 14:34:08;;;;;;;12.10;6.18;;;;;;;;;;5012754;28;20032;-82
2023/07/08 14:36:34;;;;;;;10.00;6.47;;;;;;;;;;5015864;28;20034;-82
2023/07/08 14:39:00;;;;;;;10.95;6.85;;;;;;;;;;5017963;28;20036;-83
2023/07/08 14:41:27;;;;;;;9.27;6.60;;;;;;;;;;5003384;28;20022;-83
2023/07/08 14:43:54;;;;;;;10.93;6.00;;;;;;;;;;5025156;28;20041;-83
2023/07/08 14:46:20;;;;;;;12.40;5.75;;;;;;;;;;5028104;28;20037;-82
2023/07/08 14:48:45;;;;;;;8.85;5.45;;;;;;;;;;5015988;28;20121;-84
2023/07/08 14:51:11;;;;;;;10.10;5.35;;;;;;;;;;5015794;28;20068;-82